Time;durP1;ratioP1;P1;durP2;ratioP2;P2;SDS_P1;SDS_P2;PMS_P1;PMS_P2;Temp;Humidity;BMP_temperature;BMP_pressure;BME280_temperature;BME280_humidity;BME280_pressure;Samples;Min_cycle;Max_cycle;Signal;HPM_P1;HPM_P2
2022/08/31 00:04:40;;;;;;;;;;;;;;;22.78;92.38;99420.03;5075482;28;19946;-45
2022/08/31 00:07:05;;;;;;;;;;;;;;;22.52;94.18;99412.34;5073804;28;19997;-44
2022/08/31 00:09:31;;;;;;;;;;;;;;;23.34;91.70;99404.34;5074535;28;21000;-44
2022/08/31 00:11:57;;;;;;;;;;;;;;;22.69;91.73;99403.22;5075583;28;20570;-45
2022/08/31 00:14:22;;;;;;;;;;;;;;;22.73;92.59;99398.56;5075362;28;21000;-45
2022/08/31 00:16:47;;;;;;;;;;;;;;;23.06;92.40;99397.81;5070947;28;19927;-44
2022/08/31 00:19:12;;;;;;;;;;;;;;;22.37;96.52;99407.41;5074737;28;19920;-46
2022/08/31 00:21:38;;;;;;;;;;;;;;;22.09;100.00;99415.50;5076066;28;19916;-45
2022/08/31 00:24:03;;;;;;;;;;;;;;;22.60;98.48;99409.13;5075398;28;19916;-45
2022/08/31 00:26:28;;;;;;;;;;;;;;;22.92;95.76;99403.22;5073655;28;20040;-45
2022/08/31 00:28:54;;;;;;;;;;;;;;;23.36;93.26;99391.09;5074290;28;19973;-45
2022/08/31 00:31:19;;;;;;;;;;;;;;;22.31;100.00;99413.97;5074244;28;19927;-45
2022/08/31 00:33:45;;;;;;;;;;;;;;;22.31;100.00;99413.97;5075181;28;19919;-44
2022/08/31 00:36:11;;;;;;;;;;;;;;;22.34;100.00;99411.09;5072655;28;20326;-44
2022/08/31 00:38:37;;;;;;;;;;;;;;;23.00;97.79;99405.31;5074853;28;19926;-45
2022/08/31 00:41:02;;;;;;;;;;;;;;;22.17;98.66;99407.09;5073797;28;19924;-46
2022/08/31 00:43:35;;;;;;;;;;;;;;;21.25;100.00;99418.88;5075091;28;19966;-45
2022/08/31 00:46:00;;;;;;;;;;;;;;;22.71;100.00;99410.97;5053884;28;19959;-45
2022/08/31 00:48:25;;;;;;;;;;;;;;;21.84;100.00;99426.09;5074507;28;20014;-44
2022/08/31 00:50:50;;;;;;;;;;;;;;;22.71;100.00;99400.47;5074945;28;20400;-44
2022/08/31 00:53:16;;;;;;;;;;;;;;;22.93;99.98;99400.50;5056354;28;19942;-45
2022/08/31 00:55:41;;;;;;;;;;;;;;;22.39;100.00;99408.13;5049761;28;20109;-45
2022/08/31 00:58:08;;;;;;;;;;;;;;;22.82;99.92;99397.84;5073210;28;19927;-44
2022/08/31 01:00:33;;;;;;;;;;;;;;;23.56;95.24;99394.75;5073427;28;20953;-44
2022/08/31 01:03:00;;;;;;;;;;;;;;;22.67;100.00;99402.50;5074610;28;19924;-44
2022/08/31 01:05:26;;;;;;;;;;;;;;;22.82;98.47;99397.84;5053504;28;19927;-45
2022/08/31 01:07:51;;;;;;;;;;;;;;;22.69;99.63;99402.38;5048447;28;19954;-44
2022/08/31 01:10:18;;;;;;;;;;;;;;;21.78;100.00;99422.16;5052201;28;20593;-44
2022/08/31 01:12:44;;;;;;;;;;;;;;;23.16;100.00;99405.81;5074619;28;19942;-45
2022/08/31 01:15:09;;;;;;;;;;;;;;;22.39;100.00;99414.22;5056132;28;19919;-44
2022/08/31 01:17:34;;;;;;;;;;;;;;;21.96;100.00;99435.69;5072403;28;19967;-45
2022/08/31 01:20:18;;;;;;;;;;;;;;;22.33;100.00;99422.56;5054995;28;19951;-45
2022/08/31 01:22:56;;;;;;;;;;;;;;;22.62;100.00;99422.16;5072317;28;19926;-44
2022/08/31 01:25:21;;;;;;;;;;;;;;;22.60;100.00;99422.28;5073377;28;19920;-44
2022/08/31 01:27:46;;;;;;;;;;;;;;;23.46;100.00;99412.22;5070827;28;19935;-44
2022/08/31 01:30:12;;;;;;;;;;;;;;;21.85;100.00;99431.25;5072539;28;19924;-45
2022/08/31 01:32:38;;;;;;;;;;;;;;;21.34;100.00;99438.34;5072714;28;19947;-45
2022/08/31 01:35:03;;;;;;;;;;;;;;;22.28;100.00;99429.91;5073295;28;19916;-44
2022/08/31 01:37:29;;;;;;;;;;;;;;;22.35;100.00;99415.38;5072062;28;19923;-45
2022/08/31 01:39:54;;;;;;;;;;;;;;;22.92;100.00;99419.84;5071634;28;19924;-44
2022/08/31 01:42:19;;;;;;;;;;;;;;;22.50;100.00;99419.50;5073291;28;19924;-44
2022/08/31 01:44:44;;;;;;;;;;;;;;;21.72;100.00;99433.91;5073252;28;19920;-44
2022/08/31 01:47:10;;;;;;;;;;;;;;;22.10;100.00;99429.44;5072457;28;20353;-44
2022/08/31 01:49:35;;;;;;;;;;;;;;;22.55;100.00;99422.63;5072321;28;20786;-44
2022/08/31 01:52:00;;;;;;;;;;;;;;;22.05;100.00;99436.81;5072525;28;19920;-44
2022/08/31 01:54:26;;;;;;;;;;;;;;;22.18;100.00;99432.34;5072397;28;20086;-44
2022/08/31 01:56:52;;;;;;;;;;;;;;;21.98;100.00;99433.81;5072343;28;19955;-44
2022/08/31 01:59:18;;;;;;;;;;;;;;;21.92;100.00;99429.03;5072340;28;19927;-45
2022/08/31 02:01:45;;;;;;;;;;;;;;;21.93;100.00;99431.50;5041661;28;19924;-45
2022/08/31 02:04:11;;;;;;;;;;;;;;;21.65;100.00;99437.91;5073633;28;20541;-45
2022/08/31 02:06:36;;;;;;;;;;;;;;;22.86;100.00;99417.69;5071137;28;19916;-44
2022/08/31 02:09:03;;;;;;;;;;;;;;;22.67;100.00;99425.28;5072442;28;20136;-45
2022/08/31 02:11:28;;;;;;;;;;;;;;;21.94;100.00;99440.25;5071235;28;19959;-44
2022/08/31 02:13:53;;;;;;;;;;;;;;;22.04;100.00;99438.59;5073506;28;20010;-44
2022/08/31 02:16:18;;;;;;;;;;;;;;;21.02;100.00;99441.41;5071481;28;19955;-44
2022/08/31 02:18:43;;;;;;;;;;;;;;;21.74;100.00;99430.34;5071894;28;19946;-45
2022/08/31 02:21:09;;;;;;;;;;;;;;;21.05;100.00;99433.31;5076224;28;20057;-44
2022/08/31 02:23:34;;;;;;;;;;;;;;;21.70;100.00;99435.78;5078653;28;19968;-44
2022/08/31 02:25:59;;;;;;;;;;;;;;;21.07;100.00;99431.44;5079693;28;19924;-44
2022/08/31 02:28:24;;;;;;;;;;;;;;;22.24;100.00;99428.50;5079204;28;19920;-45
2022/08/31 02:30:50;;;;;;;;;;;;;;;22.31;100.00;99434.97;5078541;28;19928;-45
2022/08/31 02:33:16;;;;;;;;;;;;;;;22.37;100.00;99434.47;5078386;28;19916;-45
2022/08/31 02:35:41;;;;;;;;;;;;;;;23.05;100.00;99417.13;5078803;28;19999;-45
2022/08/31 02:38:07;;;;;;;;;;;;;;;22.84;100.00;99414.34;5079413;28;20371;-45
2022/08/31 02:40:37;;;;;;;;;;;;;;;22.91;100.00;99415.53;5077943;28;19926;-45
2022/08/31 02:43:02;;;;;;;;;;;;;;;22.20;100.00;99424.38;5076625;28;20080;-44
2022/08/31 02:45:27;;;;;;;;;;;;;;;22.59;100.00;99419.78;5077668;28;19924;-44
2022/08/31 02:47:52;;;;;;;;;;;;;;;22.60;100.00;99418.81;5078359;28;20010;-44
2022/08/31 02:50:18;;;;;;;;;;;;;;;22.08;100.00;99424.34;5076555;28;20846;-45
2022/08/31 02:52:44;;;;;;;;;;;;;;;22.13;100.00;99421.38;5078566;28;19920;-45
2022/08/31 02:55:09;;;;;;;;;;;;;;;22.43;100.00;99417.47;5079171;28;19956;-45
2022/08/31 02:57:35;;;;;;;;;;;;;;;22.09;100.00;99420.75;5077355;28;20047;-45
2022/08/31 03:00:00;;;;;;;;;;;;;;;22.27;100.00;99417.75;5077935;28;19924;-45
2022/08/31 03:02:25;;;;;;;;;;;;;;;23.03;100.00;99408.53;5059862;28;19916;-45
2022/08/31 03:04:50;;;;;;;;;;;;;;;23.19;100.00;99416.06;5077557;28;19967;-45
2022/08/31 03:07:16;;;;;;;;;;;;;;;22.44;100.00;99417.34;5078196;28;19955;-44
2022/08/31 03:09:41;;;;;;;;;;;;;;;22.55;100.00;99424.41;5077709;28;19924;-44
2022/08/31 03:12:06;;;;;;;;;;;;;;;22.45;100.00;99423.44;5078112;28;19926;-44
2022/08/31 03:14:32;;;;;;;;;;;;;;;22.43;100.00;99413.03;5078145;28;20085;-45
2022/08/31 03:16:57;;;;;;;;;;;;;;;22.74;100.00;99416.84;5059678;28;19920;-44
2022/08/31 03:19:22;;;;;;;;;;;;;;;22.84;100.00;99416.13;5077648;28;19916;-45
2022/08/31 03:21:48;;;;;;;;;;;;;;;22.97;100.00;99417.69;5078182;28;19931;-44
2022/08/31 03:24:13;;;;;;;;;;;;;;;22.87;100.00;99415.88;5078964;28;19912;-45
2022/08/31 03:26:39;;;;;;;;;;;;;;;22.89;100.00;99420.06;5076687;28;20557;-45
2022/08/31 03:29:04;;;;;;;;;;;;;;;22.70;100.00;99417.19;5077981;28;19927;-44
2022/08/31 03:31:30;;;;;;;;;;;;;;;23.19;100.00;99421.31;5077247;28;19916;-44
2022/08/31 03:33:56;;;;;;;;;;;;;;;22.94;100.00;99417.94;5074298;28;19920;-44
2022/08/31 03:36:21;;;;;;;;;;;;;;;23.05;100.00;99411.03;5073211;28;19916;-45
2022/08/31 03:38:46;;;;;;;;;;;;;;;22.94;100.00;99420.56;5075546;28;19920;-44
2022/08/31 03:41:11;;;;;;;;;;;;;;;22.84;100.00;99424.00;5074774;28;19916;-45
2022/08/31 03:43:37;;;;;;;;;;;;;;;22.86;100.00;99415.06;5075804;28;19927;-45
2022/08/31 03:46:03;;;;;;;;;;;;;;;22.91;100.00;99412.09;5073411;28;19931;-45
2022/08/31 03:48:28;;;;;;;;;;;;;;;22.56;100.00;99412.97;5075220;28;19974;-44
2022/08/31 03:50:54;;;;;;;;;;;;;;;21.82;100.00;99422.75;5072200;28;20014;-44
2022/08/31 03:53:19;;;;;;;;;;;;;;;21.66;100.00;99421.22;5075105;28;19978;-44
2022/08/31 03:55:45;;;;;;;;;;;;;;;21.27;100.00;99433.53;5072301;28;20671;-44
2022/08/31 03:58:10;;;;;;;;;;;;;;;20.70;100.00;99431.31;5071818;28;20027;-44
2022/08/31 04:00:36;;;;;;;;;;;;;;;21.29;100.00;99421.16;5072815;28;19968;-44
2022/08/31 04:03:01;;;;;;;;;;;;;;;21.11;100.00;99425.06;5056309;28;19966;-44
2022/08/31 04:05:31;;;;;;;;;;;;;;;20.63;100.00;99432.69;5073872;28;20015;-44
2022/08/31 04:07:56;;;;;;;;;;;;;;;20.59;100.00;99429.41;5054452;28;19927;-44
2022/08/31 04:10:22;;;;;;;;;;;;;;;20.56;100.00;99434.00;5074287;28;19979;-44
2022/08/31 04:12:47;;;;;;;;;;;;;;;20.75;100.00;99431.00;5074641;28;19989;-45
2022/08/31 04:15:12;;;;;;;;;;;;;;;20.65;100.00;99436.03;5074990;28;19992;-48
2022/08/31 04:17:38;;;;;;;;;;;;;;;20.08;100.00;99438.88;5074174;28;21044;-44
2022/08/31 04:20:03;;;;;;;;;;;;;;;20.78;100.00;99426.44;5074987;28;19916;-44
2022/08/31 04:22:29;;;;;;;;;;;;;;;21.35;100.00;99429.53;5073127;28;19924;-44
2022/08/31 04:24:54;;;;;;;;;;;;;;;20.99;100.00;99436.38;5056185;28;19927;-44
2022/08/31 04:27:19;;;;;;;;;;;;;;;21.24;100.00;99431.13;5074275;28;20236;-44
2022/08/31 04:29:44;;;;;;;;;;;;;;;21.81;100.00;99426.34;5074255;28;19947;-44
2022/08/31 04:32:10;;;;;;;;;;;;;;;21.91;100.00;99432.56;5074031;28;19978;-44
2022/08/31 04:34:35;;;;;;;;;;;;;;;21.14;100.00;99435.31;5071722;28;19973;-44
2022/08/31 04:37:00;;;;;;;;;;;;;;;20.30;100.00;99441.78;5074209;28;19931;-45
2022/08/31 04:39:26;;;;;;;;;;;;;;;20.69;100.00;99440.13;5071742;28;19920;-44
2022/08/31 04:41:51;;;;;;;;;;;;;;;20.93;100.00;99435.00;5074492;28;19956;-45
2022/08/31 04:44:16;;;;;;;;;;;;;;;21.77;100.00;99448.47;5072348;28;19926;-44
2022/08/31 04:46:41;;;;;;;;;;;;;;;21.98;100.00;99436.41;5071461;28;19920;-44
2022/08/31 04:49:08;;;;;;;;;;;;;;;21.44;100.00;99449.88;5072684;28;19927;-45
2022/08/31 04:51:34;;;;;;;;;;;;;;;21.86;100.00;99445.19;5064043;28;19924;-44
2022/08/31 04:54:00;;;;;;;;;;;;;;;22.35;100.00;99441.63;5070529;28;19920;-43
2022/08/31 04:56:27;;;;;;;;;;;;;;;21.96;100.00;99451.44;5051547;28;19994;-44
2022/08/31 04:58:54;;;;;;;;;;;;;;;21.42;100.00;99451.78;5073086;28;19942;-44
2022/08/31 05:01:20;;;;;;;;;;;;;;;21.49;100.00;99456.50;5070619;28;19923;-45
2022/08/31 05:03:49;;;;;;;;;;;;;;;21.71;100.00;99462.84;5068367;28;20186;-44
2022/08/31 05:06:15;;;;;;;;;;;;;;;21.36;100.00;99462.66;5071879;28;19920;-44
2022/08/31 05:08:40;;;;;;;;;;;;;;;21.23;100.00;99462.66;5072575;28;19931;-45
2022/08/31 05:11:09;;;;;;;;;;;;;;;20.46;100.00;99470.41;5071681;28;19924;-44
2022/08/31 05:13:36;;;;;;;;;;;;;;;21.10;100.00;99471.38;5073560;28;19977;-44
2022/08/31 05:16:02;;;;;;;;;;;;;;;20.36;100.00;99472.75;5072851;28;19920;-44
2022/08/31 05:18:28;;;;;;;;;;;;;;;19.90;100.00;99475.72;5073406;28;19916;-44
2022/08/31 05:20:53;;;;;;;;;;;;;;;20.52;100.00;99471.78;5073004;28;19923;-45
2022/08/31 05:23:19;;;;;;;;;;;;;;;21.32;100.00;99464.63;5073631;28;20010;-44
2022/08/31 05:25:45;;;;;;;;;;;;;;;20.80;100.00;99466.44;5073085;28;19923;-44
2022/08/31 05:28:10;;;;;;;;;;;;;;;20.34;100.00;99471.19;5073089;28;19924;-44
2022/08/31 05:30:35;;;;;;;;;;;;;;;20.79;100.00;99469.13;5072547;28;20008;-44
2022/08/31 05:33:00;;;;;;;;;;;;;;;21.30;100.00;99470.00;5067463;28;19923;-44
2022/08/31 05:35:26;;;;;;;;;;;;;;;20.81;100.00;99467.25;5073672;28;19956;-45
2022/08/31 05:37:51;;;;;;;;;;;;;;;20.55;100.00;99476.78;5071019;28;19947;-45
2022/08/31 05:40:16;;;;;;;;;;;;;;;20.58;100.00;99476.63;5072042;28;19916;-45
2022/08/31 05:42:41;;;;;;;;;;;;;;;20.80;100.00;99470.81;5072022;28;19925;-44
2022/08/31 05:45:07;;;;;;;;;;;;;;;21.58;100.00;99467.28;5071108;28;19924;-45
2022/08/31 05:47:32;;;;;;;;;;;;;;;21.21;100.00;99470.66;5069737;28;20030;-44
2022/08/31 05:49:57;;;;;;;;;;;;;;;20.42;100.00;99468.91;5070753;28;19931;-44
2022/08/31 05:52:22;;;;;;;;;;;;;;;20.22;100.00;99478.06;5072648;28;19920;-45
2022/08/31 05:54:48;;;;;;;;;;;;;;;20.37;100.00;99474.44;5052445;28;19924;-45
2022/08/31 05:57:13;;;;;;;;;;;;;;;20.21;100.00;99473.78;5069408;28;19962;-45
2022/08/31 05:59:38;;;;;;;;;;;;;;;20.94;100.00;99477.72;5070873;28;19920;-44
2022/08/31 06:02:04;;;;;;;;;;;;;;;20.74;100.00;99476.47;5071554;28;19927;-45
2022/08/31 06:04:29;;;;;;;;;;;;;;;21.00;100.00;99467.69;5071214;28;20424;-44
2022/08/31 06:06:54;;;;;;;;;;;;;;;20.74;100.00;99476.47;5053537;28;19963;-44
2022/08/31 06:09:19;;;;;;;;;;;;;;;20.87;100.00;99475.53;5070697;28;19935;-44
2022/08/31 06:11:45;;;;;;;;;;;;;;;20.82;100.00;99485.50;5071648;28;20438;-45
2022/08/31 06:14:11;;;;;;;;;;;;;;;20.62;100.00;99483.34;5070854;28;20308;-44
2022/08/31 06:16:36;;;;;;;;;;;;;;;20.77;100.00;99484.09;5070595;28;19927;-45
2022/08/31 06:19:05;;;;;;;;;;;;;;;19.63;100.00;99488.69;5073311;28;19912;-44
2022/08/31 06:21:33;;;;;;;;;;;;;;;19.91;100.00;99482.63;5054220;28;19920;-45
2022/08/31 06:23:59;;;;;;;;;;;;;;;20.00;100.00;99494.25;5071989;28;19946;-45
2022/08/31 06:26:25;;;;;;;;;;;;;;;19.52;100.00;99496.34;5072692;28;20552;-44
2022/08/31 06:28:51;;;;;;;;;;;;;;;19.49;100.00;99486.91;5073002;28;19946;-44
2022/08/31 06:31:19;;;;;;;;;;;;;;;20.77;100.00;99484.94;5071981;28;19924;-44
2022/08/31 06:33:44;;;;;;;;;;;;;;;20.68;100.00;99480.31;5073646;28;20003;-45
2022/08/31 06:36:13;;;;;;;;;;;;;;;20.67;100.00;99482.09;5071366;28;19947;-45
2022/08/31 06:38:39;;;;;;;;;;;;;;;20.06;100.00;99486.88;5071511;28;19924;-45
2022/08/31 06:41:30;;;;;;;;;;;;;;;19.10;100.00;99496.22;5072026;28;20538;-44
2022/08/31 06:43:57;;;;;;;;;;;;;;;19.62;100.00;99487.84;5067453;28;19931;-44
2022/08/31 06:46:22;;;;;;;;;;;;;;;20.66;100.00;99487.41;5045443;28;19931;-44
2022/08/31 06:48:49;;;;;;;;;;;;;;;21.03;100.00;99492.84;5070724;28;19920;-45
2022/08/31 06:51:15;;;;;;;;;;;;;;;20.70;100.00;99491.53;5064811;28;20211;-44
2022/08/31 06:53:41;;;;;;;;;;;;;;;21.06;100.00;99495.25;5043475;28;20383;-44
2022/08/31 06:56:07;;;;;;;;;;;;;;;19.99;100.00;99496.03;5070928;28;20926;-44
2022/08/31 06:58:32;;;;;;;;;;;;;;;20.60;100.00;99500.94;5072626;28;19947;-45
2022/08/31 07:01:03;;;;;;;;;;;;;;;20.89;100.00;99496.38;5071122;28;19916;-45
2022/08/31 07:03:34;;;;;;;;;;;;;;;20.03;100.00;99500.16;5072367;28;19980;-44
2022/08/31 07:06:03;;;;;;;;;;;;;;;21.22;100.00;99490.63;5068927;28;19932;-44
2022/08/31 07:08:28;;;;;;;;;;;;;;;20.54;100.00;99504.75;5074385;28;19916;-45
2022/08/31 07:10:53;;;;;;;;;;;;;;;21.16;100.00;99500.69;5075283;28;19931;-44
2022/08/31 07:13:18;;;;;;;;;;;;;;;21.27;100.00;99498.19;5074636;28;20436;-45
2022/08/31 07:15:44;;;;;;;;;;;;;;;21.43;100.00;99501.44;5073429;28;19916;-46
2022/08/31 07:18:09;;;;;;;;;;;;;;;21.26;100.00;99499.97;5076705;28;19916;-45
2022/08/31 07:20:34;;;;;;;;;;;;;;;20.72;100.00;99507.97;5074121;28;19935;-45
2022/08/31 07:23:00;;;;;;;;;;;;;;;20.22;100.00;99518.13;5075457;28;19941;-44
2022/08/31 07:25:25;;;;;;;;;;;;;;;21.31;100.00;99510.97;5072893;28;19916;-45
2022/08/31 07:27:54;;;;;;;;;;;;;;;21.28;100.00;99513.81;5075360;28;20400;-45
2022/08/31 07:30:19;;;;;;;;;;;;;;;21.42;100.00;99518.13;5056052;28;19920;-44
2022/08/31 07:32:45;;;;;;;;;;;;;;;21.13;100.00;99527.94;5075569;28;19922;-44
2022/08/31 07:35:10;;;;;;;;;;;;;;;22.44;100.00;99513.59;5072826;28;19969;-46
2022/08/31 07:43:04;;;;;;;;;;;;;;;22.42;100.00;99511.13;5051420;28;19927;-45
2022/08/31 07:45:30;;;;;;;;;;;;;;;22.96;100.00;99515.81;5070083;28;19920;-46
2022/08/31 07:47:56;;;;;;;;;;;;;;;21.35;100.00;99531.72;5075277;28;20027;-48
2022/08/31 07:50:22;;;;;;;;;;;;;;;23.16;100.00;99510.91;5072350;28;19978;-46
2022/08/31 07:52:50;;;;;;;;;;;;;;;24.09;100.00;99504.59;5074286;28;20407;-45
2022/08/31 07:55:16;;;;;;;;;;;;;;;24.51;100.00;99502.91;5073528;28;19924;-44
2022/08/31 07:57:42;;;;;;;;;;;;;;;23.28;100.00;99520.47;5073747;28;19919;-44
2022/08/31 08:00:09;;;;;;;;;;;;;;;23.66;100.00;99526.34;5075458;28;19916;-45
2022/08/31 08:02:37;;;;;;;;;;;;;;;23.16;100.00;99521.41;5056065;28;19924;-45
2022/08/31 08:05:06;;;;;;;;;;;;;;;22.92;100.00;99538.03;5073938;28;19920;-48
2022/08/31 08:07:32;;;;;;;;;;;;;;;24.26;100.00;99521.63;5071295;28;20471;-44
2022/08/31 08:09:59;;;;;;;;;;;;;;;23.90;100.00;99520.97;5074437;28;20423;-45
2022/08/31 08:12:26;;;;;;;;;;;;;;;25.33;100.00;99510.16;5074781;28;19922;-45
2022/08/31 08:14:53;;;;;;;;;;;;;;;22.65;100.00;99535.66;5074308;28;19923;-47
2022/08/31 08:17:18;;;;;;;;;;;;;;;22.88;100.00;99539.22;5052592;28;20015;-45
2022/08/31 08:19:44;;;;;;;;;;;;;;;24.59;100.00;99526.84;5073642;28;19926;-44
2022/08/31 08:22:09;;;;;;;;;;;;;;;24.00;100.00;99521.94;5073770;28;19920;-45
2022/08/31 08:24:34;;;;;;;;;;;;;;;23.95;100.00;99524.09;5073834;28;19946;-45
2022/08/31 08:26:59;;;;;;;;;;;;;;;24.27;100.00;99525.94;5052965;28;19920;-45
2022/08/31 08:29:25;;;;;;;;;;;;;;;25.17;100.00;99520.31;5071389;28;19932;-45
2022/08/31 08:31:53;;;;;;;;;;;;;;;24.74;100.00;99526.53;5075272;28;20379;-45
2022/08/31 08:34:22;;;;;;;;;;;;;;;24.15;100.00;99531.25;5074505;28;20009;-44
2022/08/31 08:36:47;;;;;;;;;;;;;;;25.33;100.00;99527.78;5071991;28;19927;-46
2022/08/31 08:39:12;;;;;;;;;;;;;;;25.39;100.00;99528.09;5054124;28;20640;-47
2022/08/31 08:41:39;;;;;;;;;;;;;;;25.89;100.00;99527.38;5071589;28;19920;-45
2022/08/31 08:44:06;;;;;;;;;;;;;;;25.01;100.00;99528.66;5073384;28;19978;-44
2022/08/31 08:46:32;;;;;;;;;;;;;;;24.88;100.00;99534.09;5054776;28;20014;-45
2022/08/31 08:48:59;;;;;;;;;;;;;;;25.93;100.00;99530.56;5054397;28;19920;-46
2022/08/31 08:51:25;;;;;;;;;;;;;;;27.03;100.00;99530.41;5072609;28;21297;-45
2022/08/31 08:53:51;;;;;;;;;;;;;;;27.22;95.84;99525.09;5054506;28;19920;-45
2022/08/31 08:56:17;;;;;;;;;;;;;;;25.84;100.00;99533.00;5072020;28;20391;-45
2022/08/31 08:58:42;;;;;;;;;;;;;;;25.90;100.00;99525.56;5073673;28;19920;-45
2022/08/31 09:01:10;;;;;;;;;;;;;;;26.24;100.00;99526.88;5035071;28;19936;-46
2022/08/31 09:03:58;;;;;;;;;;;;;;;25.18;100.00;99529.88;5072006;28;19920;-48
2022/08/31 09:06:34;;;;;;;;;;;;;;;25.55;100.00;99526.78;5052663;28;19916;-49
2022/08/31 09:09:09;;;;;;;;;;;;;;;26.69;98.57;99523.75;5072456;28;19928;-45
2022/08/31 09:11:53;;;;;;;;;;;;;;;26.85;98.01;99525.00;5056203;28;19931;-45
2022/08/31 09:14:19;;;;;;;;;;;;;;;26.77;96.90;99519.56;5039859;28;19924;-45
2022/08/31 09:16:51;;;;;;;;;;;;;;;28.23;90.64;99514.63;5072696;28;19985;-45
2022/08/31 09:19:17;;;;;;;;;;;;;;;27.63;92.43;99527.47;5054080;28;20651;-46
2022/08/31 09:21:55;;;;;;;;;;;;;;;27.54;91.95;99523.88;5072871;28;19961;-46
2022/08/31 09:24:22;;;;;;;;;;;;;;;28.20;90.17;99514.09;5072893;28;19924;-46
2022/08/31 09:27:16;;;;;;;;;;;;;;;27.31;93.75;99515.47;5072040;28;19992;-45
2022/08/31 09:29:43;;;;;;;;;;;;;;;26.98;94.48;99528.19;5072765;28;20011;-45
2022/08/31 09:32:09;;;;;;;;;;;;;;;27.64;91.51;99507.97;5070948;28;19920;-46
2022/08/31 09:34:36;;;;;;;;;;;;;;;27.66;91.65;99508.66;5063420;28;19930;-45
2022/08/31 09:37:20;;;;;;;;;;;;;;;27.70;91.58;99528.56;5070795;28;19924;-46
2022/08/31 09:39:47;;;;;;;;;;;;;;;26.90;92.47;99530.69;5070287;28;19920;-47
2022/08/31 09:42:14;;;;;;;;;;;;;;;26.41;94.88;99529.81;5070525;28;19927;-46
2022/08/31 09:44:40;;;;;;;;;;;;;;;26.75;93.96;99527.63;5052135;28;19920;-46
2022/08/31 09:47:05;;;;;;;;;;;;;;;28.24;87.57;99512.81;5069781;28;19926;-48
2022/08/31 09:49:36;;;;;;;;;;;;;;;26.14;94.14;99523.41;5051684;28;20395;-45
2022/08/31 09:55:20;;;;;;;;;;;;;;;27.53;90.13;99512.47;5061862;28;20751;-45
2022/08/31 09:57:49;;;;;;;;;;;;;;;28.20;86.77;99506.16;5070766;28;19916;-46
2022/08/31 10:00:15;;;;;;;;;;;;;;;28.82;84.76;99493.81;5070235;28;19970;-45
2022/08/31 10:02:40;;;;;;;;;;;;;;;27.92;87.61;99503.56;5052564;28;20104;-46
2022/08/31 10:05:09;;;;;;;;;;;;;;;27.40;85.46;99501.38;5067720;28;20692;-45
2022/08/31 10:07:47;;;;;;;;;;;;;;;26.33;90.31;99505.91;5050865;28;19927;-49
2022/08/31 10:10:23;;;;;;;;;;;;;;;28.31;83.54;99498.81;5072209;28;19975;-45
2022/08/31 10:12:56;;;;;;;;;;;;;;;27.95;85.60;99509.38;5069525;28;19961;-46
2022/08/31 10:15:24;;;;;;;;;;;;;;;27.11;88.00;99512.84;5054372;28;19920;-47
2022/08/31 10:18:01;;;;;;;;;;;;;;;27.30;88.69;99511.16;5053118;28;19916;-46
2022/08/31 10:20:29;;;;;;;;;;;;;;;27.27;88.50;99511.44;5069574;28;19920;-46
2022/08/31 10:22:56;;;;;;;;;;;;;;;27.21;87.84;99514.66;5070455;28;20352;-47
2022/08/31 10:25:21;;;;;;;;;;;;;;;25.51;94.83;99513.03;5053634;28;19951;-48
2022/08/31 10:27:50;;;;;;;;;;;;;;;26.46;96.22;99509.13;5070897;28;20038;-47
2022/08/31 10:30:42;;;;;;;;;;;;;;;26.00;97.46;99511.44;5051640;28;20426;-48
2022/08/31 10:33:13;;;;;;;;;;;;;;;27.09;91.29;99498.09;5069141;28;20430;-46
2022/08/31 10:35:54;;;;;;;;;;;;;;;26.19;93.94;99510.63;5052207;28;19916;-46
2022/08/31 10:38:42;;;;;;;;;;;;;;;27.37;90.96;99506.97;5054692;28;19945;-48
2022/08/31 10:41:16;;;;;;;;;;;;;;;26.48;92.74;99515.09;5052980;28;20551;-49
2022/08/31 10:43:44;;;;;;;;;;;;;;;25.64;95.42;99510.16;5076817;28;19916;-48
2022/08/31 10:46:10;;;;;;;;;;;;;;;26.42;94.79;99513.00;5075218;28;19973;-46
2022/08/31 10:48:49;;;;;;;;;;;;;;;26.76;89.95;99507.34;5041110;28;19920;-46
2022/08/31 10:51:21;;;;;;;;;;;;;;;26.68;92.65;99506.22;5073719;28;19950;-47
2022/08/31 10:53:55;;;;;;;;;;;;;;;26.61;92.27;99505.09;5052157;28;19920;-46
2022/08/31 10:56:24;;;;;;;;;;;;;;;26.24;92.48;99508.41;5075573;28;19924;-46
2022/08/31 10:58:55;;;;;;;;;;;;;;;27.26;92.16;99507.16;5057246;28;19920;-46
2022/08/31 11:01:38;;;;;;;;;;;;;;;26.51;90.77;99512.19;5072360;28;20030;-46
2022/08/31 11:04:12;;;;;;;;;;;;;;;27.86;86.13;99497.03;5055532;28;20022;-45
2022/08/31 11:06:40;;;;;;;;;;;;;;;27.28;88.05;99515.78;5053979;28;19919;-46
2022/08/31 11:09:13;;;;;;;;;;;;;;;26.31;89.65;99513.13;5055902;28;19916;-46
2022/08/31 11:11:39;;;;;;;;;;;;;;;27.03;90.56;99503.97;5075240;28;19976;-46
2022/08/31 11:14:13;;;;;;;;;;;;;;;25.84;92.42;99505.78;5074883;28;20392;-48
2022/08/31 11:16:45;;;;;;;;;;;;;;;26.45;90.47;99510.09;5073891;28;19927;-46
2022/08/31 11:19:26;;;;;;;;;;;;;;;27.57;83.05;99501.59;5057049;28;19928;-46
2022/08/31 11:22:04;;;;;;;;;;;;;;;27.39;84.89;99493.56;5074676;28;19924;-46
2022/08/31 11:24:29;;;;;;;;;;;;;;;27.80;82.45;99486.97;5072157;28;19927;-47
2022/08/31 11:27:10;;;;;;;;;;;;;;;25.88;88.80;99510.69;5075002;28;20419;-46
2022/08/31 11:29:45;;;;;;;;;;;;;;;26.64;86.85;99498.69;5073926;28;20032;-46
2022/08/31 11:32:10;;;;;;;;;;;;;;;28.80;79.35;99490.47;5073083;28;19927;-46
2022/08/31 11:34:46;;;;;;;;;;;;;;;27.13;81.09;99502.94;5073434;28;19953;-46
2022/08/31 11:37:12;;;;;;;;;;;;;;;27.28;83.87;99507.84;5057944;28;19919;-47
2022/08/31 11:39:41;;;;;;;;;;;;;;;27.85;81.30;99490.06;5055739;28;20577;-47
2022/08/31 11:42:09;;;;;;;;;;;;;;;26.50;84.42;99510.50;5057989;28;20338;-46
2022/08/31 11:44:35;;;;;;;;;;;;;;;27.04;84.40;99500.34;5056668;28;19924;-47
2022/08/31 11:47:06;;;;;;;;;;;;;;;27.64;80.15;99495.56;5069066;28;20022;-46
2022/08/31 11:49:45;;;;;;;;;;;;;;;27.27;83.46;99500.88;5074481;28;19923;-47
2022/08/31 11:52:19;;;;;;;;;;;;;;;28.48;75.82;99494.53;5072532;28;19924;-47
2022/08/31 11:54:47;;;;;;;;;;;;;;;28.92;72.32;99493.72;5075019;28;19973;-46
2022/08/31 11:57:16;;;;;;;;;;;;;;;27.98;75.44;99495.00;5074259;28;19974;-46
2022/08/31 11:59:44;;;;;;;;;;;;;;;27.59;78.09;99494.34;5075429;28;19920;-46
2022/08/31 12:02:19;;;;;;;;;;;;;;;29.63;72.18;99482.03;5053585;28;20014;-47
2022/08/31 12:04:47;;;;;;;;;;;;;;;28.65;68.97;99482.25;5071932;28;19920;-46
2022/08/31 12:07:17;;;;;;;;;;;;;;;29.88;64.37;99483.00;5055944;28;20443;-47
2022/08/31 12:09:45;;;;;;;;;;;;;;;30.60;57.50;99479.78;5056166;28;19924;-47
2022/08/31 12:12:26;;;;;;;;;;;;;;;30.46;60.28;99477.81;5074400;28;19912;-47
2022/08/31 12:15:02;;;;;;;;;;;;;;;30.99;60.59;99481.78;5073571;28;20740;-49
2022/08/31 12:17:51;;;;;;;;;;;;;;;31.26;60.17;99475.22;5074873;28;19916;-49
2022/08/31 12:20:19;;;;;;;;;;;;;;;32.64;51.23;99474.66;5034064;28;19931;-46
2022/08/31 12:25:44;;;;;;;;;;;;;;;33.70;45.67;99460.22;5072856;28;19922;-47
2022/08/31 12:28:09;;;;;;;;;;;;;;;30.98;50.44;99465.00;5074556;28;19924;-46
2022/08/31 12:30:34;;;;;;;;;;;;;;;30.97;50.55;99462.50;5072846;28;19980;-46
2022/08/31 12:33:01;;;;;;;;;;;;;;;30.53;55.67;99461.00;5073302;28;19945;-48
2022/08/31 12:35:27;;;;;;;;;;;;;;;31.79;54.47;99454.22;5055326;28;19915;-47
2022/08/31 12:37:56;;;;;;;;;;;;;;;30.09;57.10;99471.09;5073745;28;20258;-47
2022/08/31 12:40:22;;;;;;;;;;;;;;;30.67;58.27;99459.50;5073241;28;19927;-47
2022/08/31 12:42:47;;;;;;;;;;;;;;;29.84;56.77;99457.75;5074204;28;19924;-46
2022/08/31 12:45:13;;;;;;;;;;;;;;;29.40;61.45;99471.16;5071535;28;19979;-47
2022/08/31 12:47:47;;;;;;;;;;;;;;;29.58;60.57;99463.94;5073090;28;20358;-47
2022/08/31 12:50:15;;;;;;;;;;;;;;;29.10;62.33;99472.47;5073727;28;19955;-47
2022/08/31 12:52:53;;;;;;;;;;;;;;;30.67;60.16;99464.81;5038782;28;19920;-48
2022/08/31 12:55:23;;;;;;;;;;;;;;;29.64;57.15;99461.63;5073835;28;19951;-46
2022/08/31 12:57:57;;;;;;;;;;;;;;;28.98;61.13;99463.94;5053334;28;19920;-48